Time;durP1;ratioP1;P1;durP2;ratioP2;P2;SDS_P1;SDS_P2;PMS_P1;PMS_P2;Temp;Humidity;BMP_temperature;BMP_pressure;BME280_temperature;BME280_humidity;BME280_pressure;Samples;Min_cycle;Max_cycle;Signal;HPM_P1;HPM_P2
2024/01/26 00:00:50;;;;;;;11.90;9.13;;;10.60;99.90;;;;;;5059575;28;40565;-76
2024/01/26 00:03:16;;;;;;;12.27;8.37;;;10.60;99.90;;;;;;5044857;28;37278;-76
2024/01/26 00:05:42;;;;;;;10.77;8.53;;;10.60;99.90;;;;;;5044257;28;38369;-76
2024/01/26 00:08:08;;;;;;;12.23;9.37;;;10.70;99.90;;;;;;5045682;28;39006;-77
2024/01/26 00:10:36;;;;;;;13.33;7.87;;;10.70;99.90;;;;;;5047413;28;20168;-76
2024/01/26 00:13:02;;;;;;;9.97;7.57;;;10.60;99.90;;;;;;5062666;28;38289;-76
2024/01/26 00:15:28;;;;;;;10.57;8.48;;;10.60;99.90;;;;;;5062193;28;39296;-77
2024/01/26 00:17:55;;;;;;;9.23;7.20;;;10.60;99.90;;;;;;5045041;28;36125;-76
2024/01/26 00:20:21;;;;;;;8.13;6.90;;;10.60;99.90;;;;;;5061946;28;39238;-77
2024/01/26 00:22:47;;;;;;;10.57;7.70;;;10.60;99.90;;;;;;5061250;28;38967;-76
2024/01/26 00:25:13;;;;;;;9.50;7.18;;;10.60;99.90;;;;;;5059038;28;37811;-76
2024/01/26 00:27:40;;;;;;;9.10;6.87;;;10.60;99.90;;;;;;5045938;28;39047;-77
2024/01/26 00:30:07;;;;;;;7.93;7.13;;;10.60;99.90;;;;;;5072878;28;39300;-76
2024/01/26 00:32:33;;;;;;;9.83;7.87;;;10.60;99.90;;;;;;5049486;28;39388;-76
2024/01/26 00:34:59;;;;;;;11.33;7.90;;;10.70;99.90;;;;;;5047350;28;38273;-75
2024/01/26 00:37:26;;;;;;;10.63;7.47;;;10.70;99.90;;;;;;5056628;28;34814;-76
2024/01/26 00:39:52;;;;;;;10.80;7.10;;;10.70;99.90;;;;;;5043861;28;40747;-76
2024/01/26 00:42:18;;;;;;;8.10;7.30;;;10.70;99.90;;;;;;5060627;28;38300;-76
2024/01/26 00:44:44;;;;;;;9.30;7.27;;;10.70;99.90;;;;;;5043791;28;36994;-76
2024/01/26 00:47:10;;;;;;;9.23;7.00;;;10.70;99.90;;;;;;5039855;28;36465;-74
2024/01/26 00:49:37;;;;;;;8.83;7.33;;;10.70;99.90;;;;;;5060708;28;38824;-76
2024/01/26 00:52:03;;;;;;;8.80;7.60;;;10.70;99.90;;;;;;5048192;28;38118;-75
2024/01/26 00:54:29;;;;;;;8.97;7.30;;;10.70;99.90;;;;;;5063315;28;37882;-75
2024/01/26 00:56:56;;;;;;;10.33;7.30;;;10.70;99.90;;;;;;5040856;28;37642;-75
2024/01/26 00:59:22;;;;;;;8.27;7.33;;;10.70;99.90;;;;;;5042088;28;38973;-76
2024/01/26 01:01:48;;;;;;;8.47;7.33;;;10.70;99.90;;;;;;5047449;28;38625;-75
2024/01/26 01:04:14;;;;;;;9.50;7.33;;;10.70;99.90;;;;;;5044454;28;38393;-76
2024/01/26 01:06:41;;;;;;;8.77;6.30;;;10.70;99.90;;;;;;5061242;28;38590;-75
2024/01/26 01:09:07;;;;;;;10.00;7.43;;;10.70;99.90;;;;;;5045297;28;41234;-75
2024/01/26 01:11:33;;;;;;;9.30;7.10;;;10.70;99.90;;;;;;5056363;28;40005;-75
2024/01/26 01:13:59;;;;;;;11.17;7.87;;;10.70;99.90;;;;;;5067657;28;39239;-75
2024/01/26 01:16:28;;;;;;;10.73;7.27;;;10.70;99.90;;;;;;5047110;28;36054;-76
2024/01/26 01:18:54;;;;;;;11.53;7.90;;;10.70;99.90;;;;;;5049036;28;39214;-76
2024/01/26 01:21:20;;;;;;;9.23;7.57;;;10.70;99.90;;;;;;5046571;28;38978;-77
2024/01/26 01:23:46;;;;;;;9.13;8.10;;;10.70;99.90;;;;;;5047601;28;39078;-76
2024/01/26 01:26:16;;;;;;;12.27;8.50;;;10.70;99.90;;;;;;5041543;28;35975;-76
2024/01/26 01:28:42;;;;;;;10.85;8.75;;;10.70;99.90;;;;;;5041547;28;40349;-77
2024/01/26 01:31:10;;;;;;;14.57;9.83;;;10.70;99.90;;;;;;5048243;28;38946;-77
2024/01/26 01:33:36;;;;;;;14.30;9.77;;;10.70;99.90;;;;;;5047565;28;36867;-76
2024/01/26 01:36:02;;;;;;;14.60;9.73;;;10.70;99.90;;;;;;5056576;28;38753;-76
2024/01/26 01:38:29;;;;;;;12.73;9.63;;;10.70;99.90;;;;;;5049782;28;37678;-76
2024/01/26 01:40:55;;;;;;;12.90;10.53;;;10.70;99.90;;;;;;5038620;28;38847;-76
2024/01/26 01:43:21;;;;;;;12.70;9.97;;;10.70;99.90;;;;;;5045719;28;38166;-75
2024/01/26 01:45:47;;;;;;;14.70;9.60;;;10.70;99.90;;;;;;5043274;28;36812;-75
2024/01/26 01:48:13;;;;;;;13.17;9.83;;;10.70;99.90;;;;;;5049607;28;37707;-75
2024/01/26 01:50:39;;;;;;;14.60;10.10;;;10.70;99.90;;;;;;5048207;28;39138;-76
2024/01/26 01:53:08;;;;;;;13.93;10.93;;;10.70;99.90;;;;;;5054470;28;38683;-76
2024/01/26 01:55:36;;;;;;;17.43;11.10;;;10.70;99.90;;;;;;5047668;28;36445;-76
2024/01/26 01:58:02;;;;;;;18.53;12.10;;;10.70;99.90;;;;;;5047749;28;37604;-78
2024/01/26 02:03:04;;;;;;;19.27;12.68;;;10.70;99.90;;;;;;5410850;23;20590;-80
2024/01/26 02:05:30;;;;;;;22.48;13.82;;;10.70;99.90;;;;;;5031899;28;36263;-80
2024/01/26 02:07:56;;;;;;;20.87;12.67;;;10.80;99.90;;;;;;5056180;28;39092;-80
2024/01/26 02:10:23;;;;;;;21.53;13.37;;;10.80;99.90;;;;;;5044327;28;37711;-79
2024/01/26 02:12:49;;;;;;;18.60;12.90;;;10.80;99.90;;;;;;5045974;28;37727;-79
2024/01/26 02:15:16;;;;;;;19.10;12.63;;;10.80;99.90;;;;;;5048329;28;36609;-80
2024/01/26 02:17:42;;;;;;;15.70;12.07;;;10.90;99.90;;;;;;5074877;28;41704;-79
2024/01/26 02:20:09;;;;;;;17.40;11.57;;;10.80;99.90;;;;;;5045037;28;37510;-79
2024/01/26 02:22:37;;;;;;;12.40;10.03;;;10.80;99.90;;;;;;5058306;28;36983;-78
2024/01/26 02:25:04;;;;;;;17.73;10.17;;;10.90;99.90;;;;;;5049555;28;34265;-79
2024/01/26 02:27:31;;;;;;;14.07;9.73;;;10.90;99.90;;;;;;5046157;28;38409;-79
2024/01/26 02:29:57;;;;;;;15.25;10.05;;;10.90;99.90;;;;;;5045843;28;37621;-79
2024/01/26 02:32:23;;;;;;;15.43;9.23;;;10.90;99.90;;;;;;5036447;28;35620;-79
2024/01/26 02:34:51;;;;;;;14.95;9.32;;;11.00;99.90;;;;;;5043189;28;36448;-78
2024/01/26 02:37:17;;;;;;;14.47;10.07;;;11.00;99.90;;;;;;5047424;28;40535;-78
2024/01/26 02:39:43;;;;;;;15.90;9.40;;;11.00;99.90;;;;;;5052922;28;38148;-80
2024/01/26 02:42:09;;;;;;;16.42;8.85;;;11.00;99.90;;;;;;5051816;28;37936;-79
2024/01/26 02:44:36;;;;;;;11.60;9.10;;;11.00;99.90;;;;;;5036372;28;38170;-79
2024/01/26 02:47:02;;;;;;;14.00;9.13;;;11.00;99.90;;;;;;5037925;28;38786;-79
2024/01/26 02:49:29;;;;;;;15.77;9.80;;;11.00;99.90;;;;;;5037239;28;46905;-79
2024/01/26 02:51:55;;;;;;;14.77;9.83;;;11.00;99.90;;;;;;5039277;28;37482;-80
2024/01/26 02:54:21;;;;;;;13.27;9.85;;;11.10;99.90;;;;;;5058825;28;37511;-79
2024/01/26 02:56:48;;;;;;;13.13;10.20;;;11.10;99.90;;;;;;5034373;28;39894;-79
2024/01/26 02:59:14;;;;;;;14.48;10.60;;;11.10;99.90;;;;;;5035609;28;40269;-80
2024/01/26 03:01:41;;;;;;;14.87;10.77;;;11.10;99.90;;;;;;5036780;28;37250;-79
2024/01/26 03:04:07;;;;;;;16.55;11.52;;;11.20;99.90;;;;;;5032082;28;40666;-80
2024/01/26 03:06:33;;;;;;;14.30;11.48;;;11.20;99.90;;;;;;5037885;28;38227;-81
2024/01/26 03:08:59;;;;;;;16.83;12.20;;;11.20;99.90;;;;;;5053421;28;39428;-80
2024/01/26 03:11:37;;;;;;;18.13;13.33;;;11.20;99.90;;;;;;5034603;28;38965;-78
2024/01/26 03:14:05;;;;;;;15.07;13.03;;;11.20;99.90;;;;;;5050379;28;38946;-79
2024/01/26 03:16:38;;;;;;;21.08;14.18;;;11.20;99.90;;;;;;5043361;28;38303;-79
2024/01/26 03:19:04;;;;;;;;;;;11.20;99.90;;;;;;5042036;28;37853;-79
2024/01/26 03:21:30;;;;;;;18.55;14.35;;;11.20;99.90;;;;;;5054080;28;39119;-79
2024/01/26 03:23:56;;;;;;;23.52;14.95;;;11.20;99.90;;;;;;5036748;28;35614;-79
2024/01/26 03:26:23;;;;;;;19.95;15.18;;;11.20;99.90;;;;;;5035993;28;38599;-77
2024/01/26 03:28:49;;;;;;;23.83;15.43;;;11.20;99.90;;;;;;5053703;28;38924;-79
2024/01/26 03:31:16;;;;;;;26.55;16.20;;;11.20;99.90;;;;;;5039287;28;37436;-79
2024/01/26 03:33:44;;;;;;;19.83;16.13;;;11.30;99.90;;;;;;5042129;28;36687;-79
2024/01/26 03:36:12;;;;;;;24.77;16.17;;;11.30;99.90;;;;;;5066949;28;38902;-79
2024/01/26 03:38:38;;;;;;;19.43;16.20;;;11.30;99.90;;;;;;5062557;28;38267;-79
2024/01/26 03:41:05;;;;;;;24.20;16.42;;;11.30;99.90;;;;;;5051721;28;38521;-78
2024/01/26 03:43:31;;;;;;;20.38;16.17;;;11.30;99.90;;;;;;5036843;28;36376;-80
2024/01/26 03:45:57;;;;;;;21.88;16.52;;;11.30;99.90;;;;;;5040739;28;37894;-79
2024/01/26 03:48:23;;;;;;;22.95;16.20;;;11.30;99.90;;;;;;5034178;28;37278;-79
2024/01/26 03:50:50;;;;;;;28.75;16.67;;;11.30;99.90;;;;;;5047106;28;35121;-79
2024/01/26 03:53:16;;;;;;;23.43;17.77;;;11.30;99.90;;;;;;5054512;28;37704;-79
2024/01/26 03:55:42;;;;;;;22.98;16.52;;;11.30;99.90;;;;;;5036972;28;37991;-81
2024/01/26 03:58:08;;;;;;;23.90;17.53;;;11.30;99.90;;;;;;5045655;28;38888;-80
2024/01/26 04:00:35;;;;;;;19.10;14.68;;;11.30;99.90;;;;;;5050362;28;37365;-80
2024/01/26 04:03:02;;;;;;;22.07;16.17;;;11.30;99.90;;;;;;5038367;28;36344;-80
2024/01/26 04:05:28;;;;;;;22.13;17.27;;;11.20;99.90;;;;;;5057363;28;49194;-79
2024/01/26 04:07:54;;;;;;;25.05;18.20;;;11.30;99.90;;;;;;5054090;28;38801;-78
2024/01/26 04:10:20;;;;;;;22.13;18.87;;;11.30;99.90;;;;;;5041546;28;37083;-79
2024/01/26 04:12:46;;;;;;;24.17;19.15;;;11.20;99.90;;;;;;5053255;28;38929;-80
2024/01/26 04:15:12;;;;;;;25.17;20.77;;;11.30;99.90;;;;;;5047538;28;38747;-78
2024/01/26 04:17:39;;;;;;;27.43;22.23;;;11.20;99.90;;;;;;5042683;28;39152;-77
2024/01/26 04:20:05;;;;;;;30.13;22.40;;;11.20;99.90;;;;;;5025625;28;37206;-79
2024/01/26 04:22:31;;;;;;;28.05;22.15;;;11.20;99.90;;;;;;5025505;28;47582;-78
2024/01/26 04:24:58;;;;;;;31.38;23.48;;;11.20;99.90;;;;;;5041233;28;39088;-77
2024/01/26 04:27:24;;;;;;;28.83;22.73;;;11.20;99.90;;;;;;5025463;28;35331;-78
2024/01/26 04:29:50;;;;;;;29.63;21.27;;;11.10;99.90;;;;;;5027236;28;37209;-79
2024/01/26 04:32:16;;;;;;;28.63;21.67;;;11.10;99.90;;;;;;5029730;28;36479;-80
2024/01/26 04:34:42;;;;;;;31.95;22.50;;;11.10;99.90;;;;;;5038598;28;38024;-79
2024/01/26 04:37:08;;;;;;;32.85;22.42;;;11.10;99.90;;;;;;5053160;28;38165;-78
2024/01/26 04:39:34;;;;;;;32.03;22.07;;;11.10;99.90;;;;;;5027135;28;36958;-78
2024/01/26 04:42:00;;;;;;;31.57;22.50;;;11.10;99.90;;;;;;5056341;28;37654;-79
2024/01/26 04:44:26;;;;;;;33.87;23.30;;;11.10;99.90;;;;;;5039389;28;37526;-79
2024/01/26 04:46:55;;;;;;;33.08;23.90;;;11.10;99.90;;;;;;5030714;28;37607;-78
2024/01/26 04:49:23;;;;;;;34.87;23.03;;;11.10;99.90;;;;;;5029494;28;39560;-78
2024/01/26 04:51:50;;;;;;;37.97;24.53;;;11.10;99.90;;;;;;5029985;28;36344;-79
2024/01/26 04:54:16;;;;;;;30.73;24.73;;;11.00;99.90;;;;;;5041958;28;39065;-79
2024/01/26 04:56:43;;;;;;;34.27;23.83;;;11.00;99.90;;;;;;5044955;28;38090;-80
2024/01/26 04:59:09;;;;;;;36.03;24.10;;;11.00;99.90;;;;;;5044499;28;37797;-79
2024/01/26 05:01:35;;;;;;;31.07;23.70;;;11.00;99.90;;;;;;5030047;28;39120;-79
2024/01/26 05:04:03;;;;;;;32.73;24.30;;;11.00;99.90;;;;;;5051434;28;38570;-79
2024/01/26 05:06:30;;;;;;;34.93;26.03;;;11.00;99.90;;;;;;5049573;28;48829;-79
2024/01/26 05:08:56;;;;;;;38.03;25.73;;;10.90;99.90;;;;;;5032107;28;37911;-78
2024/01/26 05:11:22;;;;;;;30.53;23.90;;;10.90;99.90;;;;;;5031574;28;36304;-77
2024/01/26 05:13:48;;;;;;;36.73;25.70;;;10.90;99.90;;;;;;5039584;28;40002;-78
2024/01/26 05:16:14;;;;;;;34.27;25.57;;;10.90;99.90;;;;;;5032144;28;35828;-78
2024/01/26 05:18:40;;;;;;;32.97;26.33;;;10.90;99.90;;;;;;5034287;28;37449;-79
2024/01/26 05:21:07;;;;;;;36.40;25.97;;;10.90;99.90;;;;;;5030882;28;36500;-78
2024/01/26 05:23:33;;;;;;;33.20;24.60;;;10.90;99.90;;;;;;5026014;28;38745;-77
2024/01/26 05:26:00;;;;;;;35.30;25.20;;;10.90;99.90;;;;;;5036221;28;39012;-79
2024/01/26 05:28:26;;;;;;;31.30;23.90;;;10.90;99.90;;;;;;5051004;28;40932;-79
2024/01/26 05:30:52;;;;;;;30.85;23.55;;;10.90;99.90;;;;;;5033574;28;36667;-78
2024/01/26 05:33:18;;;;;;;28.33;21.80;;;10.90;99.90;;;;;;5053539;28;39000;-79
2024/01/26 05:35:45;;;;;;;33.43;22.70;;;10.90;99.90;;;;;;5036034;28;39329;-78
2024/01/26 05:38:14;;;;;;;30.13;24.58;;;10.90;99.90;;;;;;5053616;28;39499;-79
2024/01/26 05:40:40;;;;;;;28.13;22.30;;;10.90;99.90;;;;;;5046900;28;37780;-78
2024/01/26 05:43:07;;;;;;;34.20;24.10;;;10.90;99.90;;;;;;5074535;28;39432;-79
2024/01/26 05:45:34;;;;;;;33.67;24.05;;;10.90;99.90;;;;;;5047302;28;38290;-78
2024/01/26 05:48:01;;;;;;;31.57;24.43;;;11.00;99.90;;;;;;5078791;28;38573;-79
2024/01/26 05:50:27;;;;;;;33.40;24.10;;;11.00;99.90;;;;;;5046623;28;46801;-76
2024/01/26 05:52:54;;;;;;;35.97;25.73;;;11.00;99.90;;;;;;5079945;28;38651;-78
2024/01/26 05:55:20;;;;;;;31.92;24.08;;;11.00;99.90;;;;;;5066172;28;37451;-78
2024/01/26 05:57:46;;;;;;;36.47;26.48;;;11.00;99.90;;;;;;5072707;28;38376;-78
2024/01/26 06:00:13;;;;;;;34.87;24.93;;;10.90;99.90;;;;;;5060075;28;37869;-78
2024/01/26 06:02:42;;;;;;;31.10;24.97;;;10.90;99.90;;;;;;5068360;28;40125;-81
2024/01/26 06:05:08;;;;;;;35.73;24.80;;;11.00;99.90;;;;;;5055995;23;38095;-77
2024/01/26 06:07:35;;;;;;;27.23;24.30;;;11.00;99.90;;;;;;5032683;28;38375;-75
2024/01/26 06:10:01;;;;;;;34.23;25.80;;;11.00;99.90;;;;;;5047690;28;38941;-76
2024/01/26 06:12:27;;;;;;;33.20;24.20;;;11.00;99.90;;;;;;5062250;28;37727;-77
2024/01/26 06:14:53;;;;;;;34.30;25.07;;;11.00;99.90;;;;;;5043295;28;38873;-76
2024/01/26 06:17:19;;;;;;;30.97;23.17;;;11.00;99.90;;;;;;5035009;28;38006;-76
2024/01/26 06:19:46;;;;;;;29.83;21.87;;;11.00;99.90;;;;;;5047222;28;36767;-77
2024/01/26 06:22:15;;;;;;;33.00;22.90;;;11.00;99.90;;;;;;5041482;28;39989;-77
2024/01/26 06:24:41;;;;;;;30.87;22.53;;;11.00;99.90;;;;;;5033935;28;39392;-76
2024/01/26 06:27:07;;;;;;;31.77;23.33;;;11.00;99.90;;;;;;5031155;28;37043;-76
2024/01/26 06:29:33;;;;;;;24.10;21.23;;;11.00;99.90;;;;;;5027382;28;38176;-76
2024/01/26 06:32:00;;;;;;;28.20;20.03;;;11.00;99.90;;;;;;5044821;28;40237;-76
2024/01/26 06:34:26;;;;;;;27.47;20.63;;;11.10;99.90;;;;;;5045100;28;38727;-77
2024/01/26 06:36:53;;;;;;;23.48;18.38;;;11.10;99.90;;;;;;5035533;28;38388;-78
2024/01/26 06:39:19;;;;;;;23.52;17.60;;;11.10;99.90;;;;;;5050450;28;37800;-76
2024/01/26 06:41:46;;;;;;;24.20;17.63;;;11.10;99.90;;;;;;5034747;28;38908;-76
2024/01/26 06:44:14;;;;;;;20.43;16.73;;;11.20;99.90;;;;;;5056271;28;39369;-76
2024/01/26 06:46:40;;;;;;;24.13;18.27;;;11.20;99.90;;;;;;5047866;28;38682;-76
2024/01/26 06:49:06;;;;;;;26.83;18.33;;;11.20;99.90;;;;;;5055596;28;37705;-75
2024/01/26 06:51:32;;;;;;;20.60;16.87;;;11.20;99.90;;;;;;5042240;28;39742;-75
2024/01/26 06:54:01;;;;;;;23.33;17.57;;;11.20;99.90;;;;;;5061574;28;38642;-76
2024/01/26 06:56:27;;;;;;;22.17;18.42;;;11.20;99.90;;;;;;5028600;28;46963;-76
2024/01/26 06:58:53;;;;;;;22.07;16.87;;;11.20;99.90;;;;;;5044841;28;37566;-76
2024/01/26 07:01:19;;;;;;;24.10;18.77;;;11.20;99.90;;;;;;5027310;28;39707;-75
2024/01/26 07:03:45;;;;;;;23.70;17.30;;;11.20;99.90;;;;;;5027537;28;37300;-76
2024/01/26 07:06:12;;;;;;;25.55;18.27;;;11.30;99.90;;;;;;5002689;28;37668;-76
2024/01/26 07:08:38;;;;;;;31.33;18.98;;;11.30;99.90;;;;;;5026314;28;37103;-76
2024/01/26 07:11:05;;;;;;;25.67;19.73;;;11.30;99.90;;;;;;5028339;28;39125;-77
2024/01/26 07:13:31;;;;;;;26.13;19.92;;;11.30;99.90;;;;;;5029981;28;40234;-76
2024/01/26 07:15:57;;;;;;;26.80;19.45;;;11.30;99.90;;;;;;5009706;28;38439;-76
2024/01/26 07:18:23;;;;;;;26.95;18.10;;;11.30;99.90;;;;;;5007471;28;38193;-76
2024/01/26 07:20:49;;;;;;;21.92;18.23;;;11.40;99.90;;;;;;5032010;28;37819;-77
2024/01/26 07:23:16;;;;;;;23.83;17.60;;;11.40;99.90;;;;;;5036125;28;37427;-76
2024/01/26 07:25:42;;;;;;;24.85;17.52;;;11.50;99.90;;;;;;5039310;28;38086;-76
2024/01/26 07:28:08;;;;;;;25.27;16.52;;;11.50;99.90;;;;;;5042249;28;37281;-76
2024/01/26 07:30:34;;;;;;;24.80;15.68;;;11.50;99.90;;;;;;5034519;28;41137;-77
2024/01/26 07:33:00;;;;;;;21.87;15.13;;;11.50;99.90;;;;;;5015742;28;39156;-76
2024/01/26 07:35:27;;;;;;;16.48;12.23;;;11.60;99.90;;;;;;5031980;28;46651;-77
2024/01/26 07:37:53;;;;;;;23.38;11.63;;;11.60;99.90;;;;;;5036168;28;36712;-77
2024/01/26 07:40:19;;;;;;;17.17;10.23;;;11.60;99.90;;;;;;5029607;28;37426;-77
2024/01/26 07:42:45;;;;;;;21.90;9.17;;;11.70;99.90;;;;;;5029724;28;37359;-77
2024/01/26 07:45:13;;;;;;;17.70;9.10;;;11.70;99.90;;;;;;5034163;28;38112;-76
2024/01/26 07:47:39;;;;;;;22.15;8.20;;;11.70;99.90;;;;;;5034279;28;38170;-76
2024/01/26 07:50:06;;;;;;;19.60;7.55;;;11.70;99.90;;;;;;5027144;28;37851;-77
2024/01/26 07:52:32;;;;;;;18.20;5.50;;;11.70;99.90;;;;;;5023477;28;36837;-77
2024/01/26 07:54:58;;;;;;;19.75;5.78;;;11.70;99.90;;;;;;5033026;28;38315;-78
2024/01/26 07:57:26;;;;;;;17.63;5.97;;;11.70;99.90;;;;;;5011261;28;35947;-78
2024/01/26 07:59:53;;;;;;;18.00;5.78;;;11.70;99.90;;;;;;5020549;28;40370;-78
2024/01/26 08:02:19;;;;;;;15.65;4.43;;;11.70;99.90;;;;;;5035205;28;38368;-79
2024/01/26 08:04:45;;;;;;;14.68;4.20;;;11.70;99.90;;;;;;5034119;28;39660;-77
2024/01/26 08:07:15;;;;;;;25.50;4.57;;;11.70;99.90;;;;;;5013170;28;37877;-78
2024/01/26 08:09:43;;;;;;;22.48;4.68;;;11.60;99.90;;;;;;5033664;28;38658;-78
2024/01/26 08:12:09;;;;;;;18.73;4.70;;;11.60;99.90;;;;;;5016354;28;39797;-78
2024/01/26 08:14:35;;;;;;;29.50;5.63;;;11.60;99.90;;;;;;5028249;28;41365;-79
2024/01/26 08:17:03;;;;;;;24.17;5.30;;;11.50;99.90;;;;;;5020555;28;38589;-77
2024/01/26 08:19:29;;;;;;;21.87;4.83;;;11.50;99.90;;;;;;5025752;28;47373;-78
2024/01/26 08:21:55;;;;;;;27.50;5.78;;;11.50;99.90;;;;;;5019456;28;38959;-78
2024/01/26 08:24:21;;;;;;;31.90;5.30;;;11.40;99.90;;;;;;5021003;28;38412;-78
2024/01/26 08:26:48;;;;;;;23.97;4.77;;;11.40;99.90;;;;;;5017026;28;36654;-79
2024/01/26 08:29:14;;;;;;;29.77;5.47;;;11.40;99.90;;;;;;5018400;28;38000;-77
2024/01/26 08:31:40;;;;;;;33.70;5.57;;;11.40;99.90;;;;;;5016301;28;39120;-78
2024/01/26 08:34:06;;;;;;;26.33;5.47;;;11.30;99.90;;;;;;5037767;28;37683;-79
2024/01/26 08:36:33;;;;;;;29.70;5.50;;;11.20;99.90;;;;;;5020200;28;37572;-78
2024/01/26 08:38:59;;;;;;;27.63;5.85;;;11.20;99.90;;;;;;5034010;28;38955;-78
2024/01/26 08:41:25;;;;;;;35.33;6.30;;;11.20;99.90;;;;;;5034886;28;40915;-78
2024/01/26 08:43:52;;;;;;;32.03;6.23;;;11.20;99.90;;;;;;5014016;28;36846;-77
2024/01/26 08:46:18;;;;;;;30.93;4.60;;;11.10;99.90;;;;;;5026276;28;38435;-77
2024/01/26 08:48:44;;;;;;;21.43;3.87;;;11.00;99.90;;;;;;5022008;28;37879;-78
2024/01/26 08:51:11;;;;;;;27.43;4.40;;;10.80;99.90;;;;;;5020002;28;38409;-77
2024/01/26 08:53:37;;;;;;;22.27;4.00;;;10.70;99.90;;;;;;5029863;28;38934;-78
2024/01/26 08:56:05;;;;;;;21.27;3.93;;;10.60;99.90;;;;;;5012295;28;36113;-78
2024/01/26 08:58:31;;;;;;;15.37;2.80;;;10.50;99.90;;;;;;5028362;28;38906;-79
2024/01/26 09:00:57;;;;;;;15.53;3.03;;;10.40;99.90;;;;;;5008317;28;37230;-78
2024/01/26 09:03:23;;;;;;;18.53;2.63;;;10.40;99.90;;;;;;5009570;28;39372;-79
2024/01/26 09:05:50;;;;;;;10.87;2.20;;;10.50;99.90;;;;;;5005101;28;37000;-78
2024/01/26 09:08:16;;;;;;;13.40;2.33;;;10.50;99.90;;;;;;5023741;28;37725;-78
2024/01/26 09:10:42;;;;;;;12.50;2.30;;;10.40;99.90;;;;;;5010433;28;37988;-79
2024/01/26 09:13:09;;;;;;;10.47;2.33;;;10.30;99.90;;;;;;5012105;28;37722;-78
2024/01/26 09:15:35;;;;;;;11.33;2.17;;;10.30;99.90;;;;;;5025141;28;36787;-79
2024/01/26 09:18:01;;;;;;;18.07;2.30;;;10.40;99.90;;;;;;5025127;28;37944;-78
2024/01/26 09:20:27;;;;;;;15.07;2.20;;;10.40;99.90;;;;;;5032590;28;46948;-78
2024/01/26 09:22:53;;;;;;;15.30;2.60;;;10.50;99.90;;;;;;5030076;28;38750;-78
2024/01/26 09:25:20;;;;;;;16.43;2.20;;;10.40;99.90;;;;;;5017627;28;38711;-78
2024/01/26 09:27:46;;;;;;;19.63;2.93;;;10.50;99.90;;;;;;5028692;28;38721;-79
2024/01/26 09:30:12;;;;;;;21.20;3.00;;;10.50;99.90;;;;;;5029177;28;38899;-78
2024/01/26 09:32:39;;;;;;;16.90;3.53;;;10.50;99.90;;;;;;5009001;28;38489;-78
2024/01/26 09:35:07;;;;;;;29.73;3.67;;;10.50;99.90;;;;;;5008724;28;39434;-79
2024/01/26 09:37:34;;;;;;;16.77;2.17;;;10.60;99.90;;;;;;5010207;28;37859;-78
2024/01/26 09:40:00;;;;;;;20.93;3.13;;;10.60;99.90;;;;;;5015385;28;37701;-78
2024/01/26 09:42:26;;;;;;;11.27;2.23;;;10.50;99.90;;;;;;5006935;28;37057;-79
2024/01/26 09:44:52;;;;;;;17.03;3.17;;;10.40;97.20;;;;;;5013820;28;36623;-78
2024/01/26 09:47:20;;;;;;;13.50;3.53;;;10.40;88.70;;;;;;5016659;28;39278;-78
2024/01/26 09:49:59;;;;;;;17.13;2.77;;;10.50;78.80;;;;;;5028846;28;37646;-79
2024/01/26 09:52:26;;;;;;;10.23;2.30;;;10.40;73.90;;;;;;5032063;28;37681;-80
2024/01/26 09:54:54;;;;;;;20.17;3.00;;;10.40;68.70;;;;;;5020422;28;36690;-80
2024/01/26 09:57:22;;;;;;;14.70;2.40;;;10.30;41.20;;;;;;5025523;28;39056;-80
2024/01/26 09:59:50;;;;;;;15.47;2.33;;;10.10;36.80;;;;;;5010686;28;37290;-80
2024/01/26 10:02:17;;;;;;;11.27;2.00;;;10.00;44.50;;;;;;5024393;28;37076;-79
2024/01/26 10:04:44;;;;;;;14.53;2.17;;;10.00;19.60;;;;;;5027846;28;38128;-79
2024/01/26 10:07:11;;;;;;;22.83;2.37;;;10.00;1.00;;;;;;5025114;28;38109;-80
2024/01/26 10:09:37;;;;;;;16.83;2.30;;;10.00;1.00;;;;;;5011549;28;37716;-79
2024/01/26 10:12:05;;;;;;;16.07;2.27;;;10.00;2.40;;;;;;5010830;28;38867;-80
2024/01/26 10:14:31;;;;;;;12.07;1.77;;;10.00;8.60;;;;;;5029942;28;37919;-79
2024/01/26 10:16:58;;;;;;;10.00;1.57;;;10.00;1.00;;;;;;5013418;28;39138;-80
2024/01/26 10:19:27;;;;;;;15.17;2.17;;;9.90;1.00;;;;;;5028847;28;37281;-79
2024/01/26 10:21:55;;;;;;;13.00;1.67;;;9.90;1.00;;;;;;5035020;28;37653;-79
2024/01/26 10:24:24;;;;;;;10.90;2.30;;;9.90;1.00;;;;;;5029658;28;36154;-80
2024/01/26 10:26:55;;;;;;;9.17;1.53;;;9.80;1.00;;;;;;5022892;28;40646;-80
2024/01/26 10:29:25;;;;;;;9.63;2.47;;;9.80;1.00;;;;;;5023482;28;37608;-79
2024/01/26 10:31:52;;;;;;;10.93;1.83;;;9.70;1.00;;;;;;5036764;28;37870;-79
2024/01/26 10:34:20;;;;;;;8.93;2.17;;;9.80;1.00;;;;;;5040170;28;36725;-79
2024/01/26 10:36:48;;;;;;;9.50;2.50;;;9.80;1.00;;;;;;5043129;28;38121;-80
2024/01/26 10:39:23;;;;;;;11.07;1.77;;;9.70;1.00;;;;;;5045343;28;37816;-80
2024/01/26 10:41:57;;;;;;;15.13;2.17;;;9.70;1.00;;;;;;5060223;28;37979;-80
2024/01/26 10:44:25;;;;;;;16.77;2.27;;;9.70;1.00;;;;;;5060470;28;35793;-81
2024/01/26 10:46:54;;;;;;;11.40;2.03;;;9.60;1.00;;;;;;5060616;28;41070;-79
2024/01/26 10:49:22;;;;;;;13.50;2.23;;;9.70;1.00;;;;;;5051251;28;40678;-80
2024/01/26 10:51:53;;;;;;;11.97;1.93;;;9.70;1.00;;;;;;5037119;28;39047;-79
2024/01/26 10:54:29;;;;;;;11.13;2.10;;;9.70;1.00;;;;;;5060155;28;38555;-81
2024/01/26 10:56:56;;;;;;;12.93;2.20;;;9.70;1.00;;;;;;5035447;28;38146;-79
2024/01/26 10:59:25;;;;;;;13.10;2.20;;;9.70;1.00;;;;;;5055491;28;39149;-81
2024/01/26 11:02:01;;;;;;;19.07;2.60;;;9.60;1.00;;;;;;5046008;28;37530;-80
2024/01/26 11:04:33;;;;;;;16.23;2.97;;;9.70;1.00;;;;;;5050895;28;38818;-80
2024/01/26 11:07:02;;;;;;;10.85;2.60;;;9.70;1.00;;;;;;5040377;28;38186;-81
2024/01/26 11:09:34;;;;;;;18.37;2.67;;;9.70;1.00;;;;;;5050247;28;47728;-80
2024/01/26 11:12:05;;;;;;;17.95;2.80;;;9.70;1.00;;;;;;5054287;28;38541;-81
2024/01/26 11:14:37;;;;;;;17.37;2.70;;;9.80;1.00;;;;;;5038358;28;49039;-81
2024/01/26 11:17:12;;;;;;;13.60;2.37;;;9.80;1.00;;;;;;5047772;28;39867;-81
2024/01/26 11:19:49;;;;;;;12.13;2.43;;;9.80;1.00;;;;;;5049986;28;39304;-79
2024/01/26 11:22:39;;;;;;;18.13;2.33;;;9.80;1.00;;;;;;5063389;28;39419;-79
2024/01/26 11:25:07;;;;;;;16.70;2.43;;;9.80;1.00;;;;;;5049977;28;38195;-80
2024/01/26 11:27:34;;;;;;;15.47;2.73;;;9.80;1.00;;;;;;5042166;28;39004;-79
2024/01/26 11:30:02;;;;;;;11.83;2.73;;;9.80;1.00;;;;;;5042617;28;38704;-80
2024/01/26 11:32:32;;;;;;;17.30;2.53;;;9.80;1.00;;;;;;5036714;28;38405;-79
2024/01/26 11:35:06;;;;;;;21.57;3.07;;;9.80;1.00;;;;;;5044129;28;36701;-80
2024/01/26 11:37:33;;;;;;;12.97;1.97;;;9.70;1.00;;;;;;5053513;28;48735;-80
2024/01/26 11:40:00;;;;;;;13.70;2.60;;;9.70;1.00;;;;;;5043040;28;39251;-79
2024/01/26 11:42:29;;;;;;;14.10;2.30;;;9.70;1.00;;;;;;5040161;28;37532;-81
2024/01/26 11:45:12;;;;;;;9.53;1.97;;;9.70;1.00;;;;;;5054855;28;37326;-80
2024/01/26 11:47:44;;;;;;;11.87;2.07;;;9.70;1.00;;;;;;5013619;28;47630;-80
2024/01/26 11:50:13;;;;;;;16.13;2.72;;;9.70;1.00;;;;;;5045221;28;38918;-80
2024/01/26 11:52:44;;;;;;;22.43;2.70;;;9.80;1.00;;;;;;5044464;28;37226;-80
2024/01/26 11:55:15;;;;;;;16.63;2.33;;;9.80;1.00;;;;;;5046556;28;37144;-81
2024/01/26 11:57:43;;;;;;;16.50;2.87;;;9.80;1.00;;;;;;5045175;28;39891;-80
2024/01/26 12:00:13;;;;;;;15.17;2.73;;;9.80;1.00;;;;;;5023334;28;38340;-81
2024/01/26 12:02:41;;;;;;;20.90;2.47;;;9.80;1.00;;;;;;5040309;28;37664;-81
2024/01/26 12:05:51;;;;;;;11.93;2.07;;;9.70;1.00;;;;;;5035182;28;36921;-80
2024/01/26 12:08:24;;;;;;;18.23;2.20;;;9.60;1.00;;;;;;5044309;28;48809;-81
2024/01/26 12:11:00;;;;;;;14.23;2.80;;;9.60;1.00;;;;;;5036597;28;37717;-81
2024/01/26 12:13:48;;;;;;;12.87;2.30;;;9.70;1.00;;;;;;5027253;28;37200;-82
2024/01/26 12:16:29;;;;;;;17.40;3.07;;;9.60;1.00;;;;;;4990947;28;38347;-81
2024/01/26 12:19:00;;;;;;;15.20;2.87;;;9.70;1.00;;;;;;5026202;28;38512;-79
2024/01/26 12:21:31;;;;;;;16.83;3.10;;;9.70;1.00;;;;;;5035698;28;38852;-81
2024/01/26 12:24:00;;;;;;;15.83;2.57;;;9.80;1.00;;;;;;5041603;28;38023;-82
2024/01/26 12:26:38;;;;;;;16.93;2.57;;;9.80;1.00;;;;;;5040950;28;49935;-81
2024/01/26 12:29:15;;;;;;;14.57;2.30;;;9.80;1.00;;;;;;5036885;28;39042;-80
2024/01/26 12:32:14;;;;;;;12.77;2.83;;;9.80;1.00;;;;;;5038796;28;38322;-81
2024/01/26 12:34:44;;;;;;;17.95;2.78;;;9.70;1.00;;;;;;5037462;28;48051;-80
2024/01/26 12:37:16;;;;;;;13.57;2.23;;;9.80;1.00;;;;;;5027825;28;36009;-80
2024/01/26 12:39:51;;;;;;;12.40;2.42;;;9.80;1.00;;;;;;5036235;28;38829;-80
2024/01/26 12:42:20;;;;;;;9.47;2.00;;;9.80;1.00;;;;;;5041396;28;37866;-80